Terminal Aerodrome Forecast
Issued by NWS

Home | Current Version | Previous Version | Text Only | Print | Product List | Glossary On
Versions: 1 2 3 4 5 6 7 8 9 10 11 12 13 14 15 16 17
983
FTUS43 KMQT 260520
TAFCMX
TAF
KCMX 260520Z 2606/2706 31008KT 4SM -SHRA BR OVC015
     FM260900 36010KT P6SM -SHRA OVC020
     FM261100 35010KT P6SM VCSH OVC030
     FM261300 34008KT P6SM VCSH BKN040
     FM261500 33008KT P6SM BKN060
     FM261700 30008KT P6SM SCT150=

USA.gov is the U.S. government's official web portal to all federal, state and local government web resources and services.